createdAt,value
2022-08-17T00:00:42.958Z,5.80
2022-08-17T00:03:17.338Z,4.43
2022-08-17T00:05:48.434Z,4.97
2022-08-17T00:08:22.559Z,4.57
2022-08-17T00:10:51.540Z,5.27
2022-08-17T00:13:24.720Z,4.33
2022-08-17T00:15:55.871Z,4.70
2022-08-17T00:18:57.453Z,4.87
2022-08-17T00:21:16.213Z,5.23
2022-08-17T00:23:53.829Z,5.13
2022-08-17T00:26:45.238Z,5.17
2022-08-17T00:29:19.326Z,4.43
2022-08-17T00:31:48.760Z,4.67
2022-08-17T00:34:19.087Z,4.03
2022-08-17T00:36:47.514Z,4.33
2022-08-17T00:39:15.663Z,4.80
2022-08-17T00:41:44.255Z,4.97
2022-08-17T00:44:12.987Z,4.63
2022-08-17T00:46:43.119Z,5.03
2022-08-17T00:49:14.420Z,4.40
2022-08-17T00:51:48.897Z,4.73
2022-08-17T00:54:20.930Z,4.63
2022-08-17T00:56:54.535Z,4.43
2022-08-17T00:59:25.002Z,4.97
2022-08-17T01:01:53.815Z,4.80
2022-08-17T01:04:23.282Z,4.43
2022-08-17T01:06:53.748Z,4.93
2022-08-17T01:09:23.972Z,5.13
2022-08-17T01:11:52.981Z,4.77
2022-08-17T01:14:21.700Z,4.87
2022-08-17T01:16:50.634Z,5.00
2022-08-17T01:19:22.212Z,5.40
2022-08-17T01:21:57.286Z,5.40
2022-08-17T01:24:27.138Z,4.93
2022-08-17T01:26:56.709Z,5.03
2022-08-17T01:29:26.774Z,5.57
2022-08-17T01:31:58.428Z,5.10
2022-08-17T01:34:33.450Z,5.10
2022-08-17T01:37:12.620Z,5.20
2022-08-17T01:39:45.590Z,5.30
2022-08-17T01:42:25.643Z,5.23
2022-08-17T01:44:59.044Z,5.10
2022-08-17T01:47:27.704Z,4.83
2022-08-17T01:49:57.922Z,4.90
2022-08-17T01:52:26.212Z,4.83
2022-08-17T01:54:56.424Z,4.97
2022-08-17T01:57:25.097Z,4.80
2022-08-17T01:59:53.502Z,4.70
2022-08-17T02:02:30.331Z,4.70
2022-08-17T02:04:59.742Z,4.53
2022-08-17T02:07:28.188Z,4.93
2022-08-17T02:09:57.927Z,4.70
2022-08-17T02:12:37.900Z,4.50
2022-08-17T02:15:11.195Z,4.50
2022-08-17T02:17:41.018Z,4.97
2022-08-17T02:20:11.455Z,4.73
2022-08-17T02:22:42.170Z,4.80
2022-08-17T02:25:14.733Z,5.03
2022-08-17T02:27:43.220Z,5.07
2022-08-17T02:30:49.886Z,4.80
2022-08-17T02:33:06.350Z,4.43
2022-08-17T02:35:37.921Z,4.67
2022-08-17T02:38:06.504Z,5.63
2022-08-17T02:40:36.767Z,5.13
2022-08-17T02:43:05.864Z,4.87
2022-08-17T02:45:34.605Z,4.37
2022-08-17T02:48:03.740Z,4.43
2022-08-17T02:50:32.284Z,4.67
2022-08-17T02:53:02.544Z,4.53
2022-08-17T02:55:34.185Z,4.47
2022-08-17T02:58:04.019Z,3.97
2022-08-17T03:00:36.198Z,5.10
2022-08-17T03:03:10.915Z,4.80
2022-08-17T03:05:39.919Z,4.47
2022-08-17T03:08:11.683Z,5.10
2022-08-17T03:10:41.910Z,4.70
2022-08-17T03:13:12.692Z,4.40
2022-08-17T03:15:43.773Z,4.43
2022-08-17T03:18:21.946Z,4.73
2022-08-17T03:20:54.557Z,5.13
2022-08-17T03:23:24.173Z,4.50
2022-08-17T03:25:54.794Z,5.13
2022-08-17T03:28:25.327Z,4.70
2022-08-17T03:30:54.460Z,4.10
2022-08-17T03:33:22.968Z,4.33
2022-08-17T03:35:51.638Z,4.60
2022-08-17T03:38:20.600Z,4.00
2022-08-17T03:40:57.313Z,4.47
2022-08-17T03:43:31.985Z,4.77
2022-08-17T03:46:34.683Z,4.17
2022-08-17T03:49:23.206Z,4.60
2022-08-17T03:52:08.765Z,4.67
2022-08-17T03:54:55.032Z,4.60
2022-08-17T03:57:23.444Z,4.37
2022-08-17T03:59:53.576Z,4.60
2022-08-17T04:02:24.510Z,4.40
2022-08-17T04:04:53.827Z,4.43
2022-08-17T04:07:24.086Z,4.30
2022-08-17T04:09:52.818Z,4.57
2022-08-17T04:12:23.102Z,4.03
2022-08-17T04:14:55.018Z,4.00
2022-08-17T04:17:25.569Z,3.90
2022-08-17T04:19:53.902Z,3.60
2022-08-17T04:22:33.235Z,4.20
2022-08-17T04:25:05.310Z,4.43
2022-08-17T04:27:33.810Z,4.40
2022-08-17T04:30:04.322Z,4.17
2022-08-17T04:33:09.852Z,4.10
2022-08-17T04:35:22.445Z,3.90
2022-08-17T04:37:51.315Z,4.40
2022-08-17T04:40:38.433Z,4.03
2022-08-17T04:43:11.742Z,4.20
2022-08-17T04:45:55.469Z,4.03
2022-08-17T04:48:36.651Z,3.90
2022-08-17T04:51:09.859Z,4.23
2022-08-17T04:53:40.144Z,4.23
2022-08-17T04:56:15.980Z,3.80
2022-08-17T04:58:45.892Z,4.43
2022-08-17T05:01:16.394Z,3.60
2022-08-17T05:03:52.144Z,3.97
2022-08-17T05:06:20.663Z,4.20
2022-08-17T05:08:49.275Z,4.07
2022-08-17T05:11:17.713Z,4.40
2022-08-17T05:13:46.218Z,3.93
2022-08-17T05:16:16.435Z,3.77
2022-08-17T05:18:54.104Z,4.10
2022-08-17T05:21:24.041Z,3.93
2022-08-17T05:23:54.794Z,4.43
2022-08-17T05:26:26.432Z,3.70
2022-08-17T05:28:57.314Z,4.20
2022-08-17T05:31:30.701Z,4.13
2022-08-17T05:33:59.663Z,3.67
2022-08-17T05:36:42.950Z,3.93
2022-08-17T05:39:16.707Z,3.67
2022-08-17T05:41:45.805Z,3.83
2022-08-17T05:44:14.418Z,4.00
2022-08-17T05:46:48.673Z,3.80
2022-08-17T05:49:20.293Z,3.87
2022-08-17T05:52:02.466Z,3.57
2022-08-17T05:54:34.488Z,3.63
2022-08-17T05:57:20.943Z,3.40
2022-08-17T06:00:05.311Z,4.00
2022-08-17T06:02:47.663Z,3.87
2022-08-17T06:05:39.888Z,4.03
2022-08-17T06:08:17.636Z,3.67
2022-08-17T06:10:53.945Z,3.30
2022-08-17T06:13:39.955Z,3.93
2022-08-17T06:16:33.231Z,3.50
2022-08-17T06:19:04.212Z,3.97
2022-08-17T06:21:37.428Z,3.70
2022-08-17T06:24:12.340Z,3.87
2022-08-17T06:26:44.299Z,3.83
2022-08-17T06:29:24.951Z,3.77
2022-08-17T06:31:53.387Z,3.87
2022-08-17T06:34:23.554Z,6.30
2022-08-17T06:37:05.626Z,4.47
2022-08-17T06:39:44.731Z,3.93
2022-08-17T06:43:02.292Z,3.30
2022-08-17T06:45:18.152Z,3.77
2022-08-17T06:47:54.201Z,3.40
2022-08-17T06:50:33.507Z,4.03
2022-08-17T06:53:12.023Z,3.50
2022-08-17T06:55:47.293Z,3.60
2022-08-17T06:58:18.137Z,3.77
2022-08-17T07:00:49.169Z,3.63
2022-08-17T07:03:21.135Z,3.93
2022-08-17T07:05:55.416Z,3.70
2022-08-17T07:08:35.154Z,3.80
2022-08-17T07:11:06.960Z,4.83
2022-08-17T07:13:44.587Z,3.67
2022-08-17T07:16:25.548Z,3.20
2022-08-17T07:18:56.570Z,3.80
2022-08-17T07:21:42.227Z,4.10
2022-08-17T07:24:31.720Z,2.80
2022-08-17T07:27:10.167Z,3.73
2022-08-17T07:29:42.678Z,5.23
2022-08-17T07:32:12.612Z,4.60
2022-08-17T07:35:02.883Z,3.67
2022-08-17T07:37:34.376Z,3.70
2022-08-17T07:40:23.064Z,3.27
2022-08-17T07:43:21.990Z,3.77
2022-08-17T07:46:34.269Z,3.53
2022-08-17T07:49:18.626Z,3.33
2022-08-17T07:52:47.795Z,3.50
2022-08-17T07:54:53.067Z,3.20
2022-08-17T07:57:42.566Z,3.50
2022-08-17T08:00:34.316Z,3.93
2022-08-17T08:03:13.702Z,3.33
2022-08-17T08:05:51.034Z,3.70
2022-08-17T08:08:32.835Z,3.67
2022-08-17T08:11:07.210Z,4.23
2022-08-17T08:13:36.140Z,3.80
2022-08-17T08:16:25.119Z,3.57
2022-08-17T08:18:57.795Z,3.80
2022-08-17T08:21:44.414Z,3.77
2022-08-17T08:24:32.865Z,3.50
2022-08-17T08:27:14.100Z,4.20
2022-08-17T08:29:52.936Z,3.30
2022-08-17T08:32:30.222Z,3.40
2022-08-17T08:35:04.690Z,3.60
2022-08-17T08:37:43.196Z,3.77
2022-08-17T08:40:33.596Z,3.80
2022-08-17T08:43:12.718Z,3.77
2022-08-17T08:45:51.004Z,3.80
2022-08-17T08:48:53.711Z,3.70
2022-08-17T08:51:35.930Z,4.17
2022-08-17T08:54:12.246Z,3.70
2022-08-17T08:57:04.974Z,3.77
2022-08-17T08:59:45.211Z,4.40
2022-08-17T09:02:42.005Z,4.40
2022-08-17T09:05:19.084Z,4.63
2022-08-17T09:07:57.361Z,4.27
2022-08-17T09:10:30.707Z,4.23
2022-08-17T09:13:11.891Z,3.90
2022-08-17T09:15:45.559Z,4.33
2022-08-17T09:19:02.914Z,4.17
2022-08-17T09:21:18.244Z,3.67
2022-08-17T09:24:02.375Z,3.63
2022-08-17T09:26:35.826Z,3.90
2022-08-17T09:29:08.662Z,3.90
2022-08-17T09:31:49.466Z,4.10
2022-08-17T09:34:21.273Z,3.47
2022-08-17T09:37:03.748Z,3.63
2022-08-17T09:39:37.546Z,4.47
2022-08-17T09:42:11.590Z,3.93
2022-08-17T09:44:43.917Z,3.90
2022-08-17T09:47:21.177Z,3.33
2022-08-17T09:49:52.546Z,3.70
2022-08-17T09:52:24.473Z,3.93
2022-08-17T09:54:55.658Z,3.50
2022-08-17T09:57:35.404Z,3.53
2022-08-17T10:00:17.046Z,3.70
2022-08-17T10:03:17.251Z,3.80
2022-08-17T10:05:56.642Z,3.33
2022-08-17T10:08:35.030Z,3.60
2022-08-17T10:11:54.465Z,3.40
2022-08-17T10:14:37.595Z,3.47
2022-08-17T10:17:20.447Z,3.40
2022-08-17T10:19:58.633Z,3.83
2022-08-17T10:22:59.665Z,3.30
2022-08-17T10:25:55.161Z,3.50
2022-08-17T10:34:17.578Z,4.13
2022-08-17T10:36:55.899Z,3.83
2022-08-17T10:42:49.076Z,3.90
2022-08-17T10:45:21.133Z,3.63
2022-08-17T10:48:05.751Z,4.13
2022-08-17T10:51:03.773Z,4.40
2022-08-17T10:54:02.020Z,3.97
2022-08-17T10:56:47.312Z,4.47
2022-08-17T10:59:49.291Z,3.97
2022-08-17T11:02:28.253Z,4.30
2022-08-17T11:05:13.280Z,3.57
2022-08-17T11:07:58.622Z,3.70
2022-08-17T11:10:51.987Z,4.30
2022-08-17T11:13:32.170Z,3.53
2022-08-17T11:16:12.530Z,4.50
2022-08-17T11:22:33.335Z,4.23
2022-08-17T11:25:16.374Z,4.10
2022-08-17T11:27:53.752Z,4.13
2022-08-17T11:30:50.431Z,5.47
2022-08-17T11:33:58.879Z,4.00
2022-08-17T11:37:02.032Z,4.53
2022-08-17T11:39:50.708Z,4.53
2022-08-17T11:42:32.783Z,4.20
2022-08-17T11:45:31.875Z,4.07
2022-08-17T11:48:28.859Z,4.10
2022-08-17T11:51:18.691Z,4.80
2022-08-17T11:54:31.085Z,4.30
2022-08-17T11:56:52.962Z,4.10
2022-08-17T11:59:59.787Z,4.23
2022-08-17T12:02:48.184Z,4.47
2022-08-17T12:05:34.223Z,4.23
2022-08-17T12:08:18.649Z,3.90
2022-08-17T12:11:08.082Z,4.40
2022-08-17T12:13:46.491Z,4.27
2022-08-17T12:16:17.862Z,3.97
2022-08-17T12:18:54.210Z,3.80
2022-08-17T12:21:43.717Z,3.90
2022-08-17T12:24:20.939Z,4.23
2022-08-17T12:26:53.750Z,3.93
2022-08-17T12:29:35.525Z,4.33
2022-08-17T12:32:15.507Z,4.30
2022-08-17T12:34:47.438Z,4.43
2022-08-17T12:37:20.114Z,4.30
2022-08-17T12:39:54.904Z,4.13
2022-08-17T12:42:24.274Z,4.23
2022-08-17T12:44:52.856Z,4.40
2022-08-17T12:47:23.054Z,3.77
2022-08-17T12:49:54.197Z,4.00
2022-08-17T12:52:25.088Z,4.17
2022-08-17T12:54:57.325Z,4.10
2022-08-17T12:57:29.275Z,3.90
2022-08-17T13:00:01.648Z,3.80
2022-08-17T13:02:41.715Z,3.53
2022-08-17T13:05:23.437Z,3.53
2022-08-17T13:07:53.180Z,3.27
2022-08-17T13:10:31.639Z,3.67
2022-08-17T13:13:06.360Z,3.10
2022-08-17T13:15:44.895Z,2.93
2022-08-17T13:18:39.586Z,3.80
2022-08-17T13:21:19.489Z,3.37
2022-08-17T13:23:57.663Z,3.20
2022-08-17T13:26:34.479Z,3.17
2022-08-17T13:29:04.818Z,3.20
2022-08-17T13:31:51.901Z,3.13
2022-08-17T13:34:34.244Z,3.17
2022-08-17T13:37:27.134Z,3.30
2022-08-17T13:39:58.944Z,3.30
2022-08-17T13:42:51.680Z,3.70
2022-08-17T13:45:45.185Z,3.27
2022-08-17T13:48:24.736Z,3.20
2022-08-17T13:51:14.168Z,3.77
2022-08-17T13:54:01.578Z,2.83
2022-08-17T13:56:39.670Z,2.90
2022-08-17T13:59:12.484Z,2.97
2022-08-17T14:01:43.923Z,3.03
2022-08-17T14:04:13.925Z,3.10
2022-08-17T14:06:54.497Z,3.50
2022-08-17T14:09:31.365Z,3.37
2022-08-17T14:12:02.951Z,3.40
2022-08-17T14:14:31.804Z,2.77
2022-08-17T14:17:01.105Z,5.40
2022-08-17T14:19:29.281Z,6.17
2022-08-17T14:21:58.944Z,3.00
2022-08-17T14:24:31.229Z,3.40
2022-08-17T14:27:00.134Z,3.50
2022-08-17T14:29:30.405Z,3.00
2022-08-17T14:32:00.179Z,3.20
2022-08-17T14:34:28.672Z,3.50
2022-08-17T14:36:57.707Z,4.40
2022-08-17T14:39:26.143Z,3.50
2022-08-17T14:41:58.448Z,3.50
2022-08-17T14:44:26.527Z,3.40
2022-08-17T14:46:54.997Z,3.60
2022-08-17T14:49:24.003Z,3.70
2022-08-17T14:51:52.950Z,3.60
2022-08-17T14:54:32.662Z,3.83
2022-08-17T14:57:23.135Z,3.33
2022-08-17T14:59:54.806Z,3.30
2022-08-17T15:02:29.758Z,3.73
2022-08-17T15:05:00.887Z,3.30
2022-08-17T15:07:30.773Z,3.40
2022-08-17T15:10:00.403Z,3.07
2022-08-17T15:12:33.617Z,3.40
2022-08-17T15:15:04.674Z,3.33
2022-08-17T15:17:43.660Z,2.80
2022-08-17T15:20:16.079Z,2.93
2022-08-17T15:22:45.730Z,2.97
2022-08-17T15:25:15.177Z,3.53
2022-08-17T15:27:45.188Z,3.00
2022-08-17T15:30:14.814Z,3.30
2022-08-17T15:32:50.953Z,3.70
2022-08-17T15:35:27.271Z,3.80
2022-08-17T15:37:59.296Z,3.80
2022-08-17T15:40:36.745Z,3.13
2022-08-17T15:43:07.568Z,3.33
2022-08-17T15:45:36.047Z,3.53
2022-08-17T15:48:04.494Z,2.67
2022-08-17T15:50:32.585Z,2.90
2022-08-17T15:53:02.206Z,2.90
2022-08-17T15:55:32.214Z,2.90
2022-08-17T15:58:00.800Z,3.17
2022-08-17T16:00:30.716Z,3.17
2022-08-17T16:03:44.481Z,3.13
2022-08-17T16:05:51.705Z,3.30
2022-08-17T16:08:21.245Z,3.17
2022-08-17T16:10:49.768Z,3.70
2022-08-17T16:13:18.614Z,2.93
2022-08-17T16:15:57.074Z,3.37
2022-08-17T16:18:30.987Z,3.60
2022-08-17T16:21:19.848Z,3.70
2022-08-17T16:23:48.029Z,3.67
2022-08-17T16:26:16.330Z,3.30
2022-08-17T16:28:44.438Z,3.60
2022-08-17T16:31:14.326Z,3.27
2022-08-17T16:33:42.859Z,3.33
2022-08-17T16:36:31.970Z,3.90
2022-08-17T16:39:00.682Z,3.33
2022-08-17T16:41:45.083Z,3.37
2022-08-17T16:44:15.452Z,3.10
2022-08-17T16:46:46.092Z,3.20
2022-08-17T16:49:24.423Z,3.53
2022-08-17T16:52:05.326Z,3.37
2022-08-17T16:54:33.407Z,3.20
2022-08-17T16:57:03.108Z,3.40
2022-08-17T16:59:41.969Z,3.60
2022-08-17T17:02:14.856Z,3.37
2022-08-17T17:04:49.187Z,3.37
2022-08-17T17:07:34.717Z,3.20
2022-08-17T17:10:08.736Z,3.33
2022-08-17T17:13:02.547Z,3.20
2022-08-17T17:15:33.841Z,3.00
2022-08-17T17:18:07.224Z,3.53
2022-08-17T17:20:43.671Z,3.30
2022-08-17T17:23:24.748Z,3.30
2022-08-17T17:25:59.497Z,3.73
2022-08-17T17:28:35.260Z,3.70
2022-08-17T17:31:08.791Z,3.40
2022-08-17T17:33:48.975Z,3.50
2022-08-17T17:36:25.504Z,3.23
2022-08-17T17:38:59.243Z,4.23
2022-08-17T17:41:34.071Z,3.50
2022-08-17T17:44:06.393Z,3.70
2022-08-17T17:46:39.853Z,3.30
2022-08-17T17:49:16.768Z,3.70
2022-08-17T17:52:06.238Z,3.27
2022-08-17T17:54:52.341Z,3.37
2022-08-17T17:57:26.516Z,3.60
2022-08-17T18:00:05.102Z,3.20
2022-08-17T18:02:53.115Z,3.10
2022-08-17T18:05:39.401Z,3.57
2022-08-17T18:08:18.250Z,3.03
2022-08-17T18:10:54.724Z,3.40
2022-08-17T18:13:32.573Z,3.30
2022-08-17T18:18:46.003Z,3.80
2022-08-17T18:26:57.509Z,3.30
2022-08-17T18:29:46.801Z,3.90
2022-08-17T18:32:32.662Z,3.80
2022-08-17T18:35:28.912Z,3.90
2022-08-17T18:38:21.667Z,3.20
2022-08-17T18:41:04.271Z,3.77
2022-08-17T18:43:44.137Z,3.60
2022-08-17T18:46:29.036Z,3.50
2022-08-17T18:49:05.297Z,4.00
2022-08-17T18:51:41.935Z,4.43
2022-08-17T18:54:24.284Z,3.53
2022-08-17T18:56:55.450Z,4.07
2022-08-17T18:59:29.055Z,4.70
2022-08-17T19:02:32.438Z,4.10
2022-08-17T19:05:13.298Z,5.37
2022-08-17T19:07:45.543Z,4.57
2022-08-17T19:10:22.415Z,4.90
2022-08-17T19:13:00.853Z,4.53
2022-08-17T19:15:35.779Z,4.00
2022-08-17T19:18:15.103Z,4.50
2022-08-17T19:20:47.087Z,6.17
2022-08-17T19:23:19.756Z,4.60
2022-08-17T19:25:52.699Z,4.33
2022-08-17T19:28:24.508Z,5.40
2022-08-17T19:30:57.685Z,4.27
2022-08-17T19:33:26.386Z,4.17
2022-08-17T19:36:06.608Z,4.67
2022-08-17T19:38:45.670Z,4.03
2022-08-17T19:41:23.271Z,3.63
2022-08-17T19:44:20.446Z,3.87
2022-08-17T19:46:56.112Z,4.30
2022-08-17T19:49:40.544Z,10.43
2022-08-17T19:52:24.901Z,3.70
2022-08-17T19:54:59.390Z,3.77
2022-08-17T19:57:41.322Z,3.47
2022-08-17T20:00:13.100Z,3.60
2022-08-17T20:02:50.439Z,4.03
2022-08-17T20:05:22.555Z,4.17
2022-08-17T20:07:55.515Z,4.10
2022-08-17T20:10:31.552Z,3.90
2022-08-17T20:13:11.626Z,3.93
2022-08-17T20:15:43.389Z,3.73
2022-08-17T20:18:19.998Z,3.73
2022-08-17T20:20:57.441Z,4.00
2022-08-17T20:23:40.277Z,4.07
2022-08-17T20:26:19.471Z,3.60
2022-08-17T20:29:37.283Z,3.53
2022-08-17T20:32:25.501Z,4.57
2022-08-17T20:35:17.237Z,3.63
2022-08-17T20:37:54.883Z,4.00
2022-08-17T20:40:27.520Z,3.43
2022-08-17T20:42:56.271Z,3.77
2022-08-17T20:45:51.791Z,4.10
2022-08-17T20:48:37.461Z,3.53
2022-08-17T20:51:22.921Z,4.00
2022-08-17T20:54:23.466Z,3.57
2022-08-17T20:56:57.182Z,3.87
2022-08-17T21:00:14.079Z,3.47
2022-08-17T21:02:45.812Z,3.20
2022-08-17T21:05:57.418Z,3.57
2022-08-17T21:08:31.650Z,4.20
2022-08-17T21:11:01.062Z,4.00
2022-08-17T21:13:57.016Z,3.60
2022-08-17T21:16:41.186Z,3.73
2022-08-17T21:19:23.131Z,3.70
2022-08-17T21:22:02.269Z,4.50
2022-08-17T21:24:44.782Z,3.87
2022-08-17T21:27:27.252Z,4.40
2022-08-17T21:30:16.489Z,4.10
2022-08-17T21:33:20.987Z,3.93
2022-08-17T21:35:52.871Z,4.93
2022-08-17T21:38:24.169Z,4.57
2022-08-17T21:40:53.795Z,3.90
2022-08-17T21:43:25.760Z,3.90
2022-08-17T21:46:00.873Z,4.03
2022-08-17T21:48:30.512Z,4.07
2022-08-17T21:51:03.908Z,3.77
2022-08-17T21:53:39.911Z,3.60
2022-08-17T21:56:09.307Z,3.87
2022-08-17T21:58:40.533Z,3.60
2022-08-17T22:01:24.872Z,3.90
2022-08-17T22:04:00.324Z,3.80
2022-08-17T22:06:34.594Z,3.70
2022-08-17T22:09:12.936Z,3.93
2022-08-17T22:11:53.735Z,4.00
2022-08-17T22:14:25.679Z,3.80
2022-08-17T22:17:18.371Z,3.60
2022-08-17T22:19:50.713Z,4.10
2022-08-17T22:22:32.239Z,4.53
2022-08-17T22:25:03.368Z,4.10
2022-08-17T22:27:55.523Z,4.53
2022-08-17T22:30:35.911Z,4.03
2022-08-17T22:33:32.494Z,5.47
2022-08-17T22:36:22.746Z,4.30
2022-08-17T22:38:54.298Z,4.20
2022-08-17T22:41:43.657Z,4.67
2022-08-17T22:44:23.145Z,4.77
2022-08-17T22:46:56.539Z,4.80
2022-08-17T22:49:29.221Z,5.57
2022-08-17T22:52:24.448Z,5.10
2022-08-17T22:55:33.033Z,5.97
2022-08-17T22:58:19.618Z,6.43
2022-08-17T23:00:49.743Z,6.07
2022-08-17T23:03:20.620Z,6.33
2022-08-17T23:06:03.401Z,6.73
2022-08-17T23:08:34.640Z,6.40
2022-08-17T23:11:04.365Z,8.33
2022-08-17T23:13:33.463Z,7.63
2022-08-17T23:16:02.533Z,9.33
2022-08-17T23:18:30.965Z,10.67
2022-08-17T23:20:59.355Z,10.07
2022-08-17T23:23:27.887Z,9.97
2022-08-17T23:25:55.951Z,10.30
2022-08-17T23:28:26.780Z,9.83
2022-08-17T23:30:55.196Z,10.80
2022-08-17T23:33:29.896Z,9.53
2022-08-17T23:35:59.288Z,9.70
2022-08-17T23:38:28.910Z,10.37
2022-08-17T23:40:57.589Z,11.13
2022-08-17T23:43:28.325Z,10.47
2022-08-17T23:45:58.025Z,10.63
2022-08-17T23:48:36.132Z,10.17
2022-08-17T23:51:09.192Z,9.97
2022-08-17T23:53:38.510Z,10.57
2022-08-17T23:56:10.433Z,9.50
2022-08-17T23:58:43.162Z,10.60
